Time;durP1;ratioP1;P1;durP2;ratioP2;P2;SDS_P1;SDS_P2;PMS_P1;PMS_P2;Temp;Humidity;BMP_temperature;BMP_pressure;BME280_temperature;BME280_humidity;BME280_pressure;Samples;Min_cycle;Max_cycle;Signal;HPM_P1;HPM_P2
2022/04/11 00:01:46;;;;;;;3.78;2.90;;;;;;;;;;5078632;28;24421;-53
2022/04/11 00:04:12;;;;;;;4.60;3.00;;;;;;;;;;5077310;28;24466;-52
2022/04/11 00:06:37;;;;;;;4.15;2.80;;;;;;;;;;5074626;28;24483;-53
2022/04/11 00:09:02;;;;;;;3.00;2.70;;;;;;;;;;5076953;28;24958;-54
2022/04/11 00:11:27;;;;;;;3.60;2.63;;;;;;;;;;5078942;28;24438;-52
2022/04/11 00:13:52;;;;;;;5.77;2.87;;;;;;;;;;5080801;28;24445;-56
2022/04/11 00:16:18;;;;;;;3.20;2.90;;;;;;;;;;5084653;28;24840;-53
2022/04/11 00:18:43;;;;;;;3.70;3.30;;;;;;;;;;5081253;28;24429;-53
2022/04/11 00:21:08;;;;;;;3.30;3.00;;;;;;;;;;5079869;28;24410;-53
2022/04/11 00:23:33;;;;;;;3.63;3.20;;;;;;;;;;5082355;28;24427;-53
2022/04/11 00:25:58;;;;;;;4.30;3.13;;;;;;;;;;5079424;28;24963;-53
2022/04/11 00:28:23;;;;;;;4.10;3.10;;;;;;;;;;5082838;28;24430;-53
2022/04/11 00:30:48;;;;;;;3.60;3.10;;;;;;;;;;5070736;28;24984;-53
2022/04/11 00:33:14;;;;;;;3.60;3.30;;;;;;;;;;5078839;28;24459;-53
2022/04/11 00:35:39;;;;;;;3.90;3.50;;;;;;;;;;5077067;28;24565;-53
2022/04/11 00:38:04;;;;;;;4.60;4.10;;;;;;;;;;5076021;28;24472;-53
2022/04/11 00:40:29;;;;;;;4.83;4.33;;;;;;;;;;5080518;28;24487;-52
2022/04/11 00:42:54;;;;;;;4.27;3.87;;;;;;;;;;5088051;28;24838;-52
2022/04/11 00:45:19;;;;;;;4.97;4.10;;;;;;;;;;5075497;28;24415;-52
2022/04/11 00:47:45;;;;;;;4.50;4.10;;;;;;;;;;5076293;28;24933;-53
2022/04/11 00:50:11;;;;;;;4.30;3.90;;;;;;;;;;5076189;28;24433;-52
2022/04/11 00:52:40;;;;;;;4.13;3.70;;;;;;;;;;5077294;28;24514;-53
2022/04/11 00:55:09;;;;;;;3.75;3.45;;;;;;;;;;5077731;28;24422;-52
2022/04/11 00:57:34;;;;;;;4.05;3.65;;;;;;;;;;5070313;28;24849;-52
2022/04/11 01:00:02;;;;;;;4.10;3.70;;;;;;;;;;5080954;28;25361;-52
2022/04/11 01:02:27;;;;;;;4.20;3.80;;;;;;;;;;5074405;28;24430;-52
2022/04/11 01:04:52;;;;;;;3.83;3.53;;;;;;;;;;5083021;28;24422;-52
2022/04/11 01:07:19;;;;;;;4.43;3.35;;;;;;;;;;5074344;28;24434;-52
2022/04/11 01:09:44;;;;;;;3.45;3.15;;;;;;;;;;5081629;28;24418;-52
2022/04/11 01:12:11;;;;;;;3.37;3.07;;;;;;;;;;5075565;28;24414;-52
2022/04/11 01:14:36;;;;;;;4.80;3.38;;;;;;;;;;5069401;28;24410;-52
2022/04/11 01:17:02;;;;;;;4.20;3.40;;;;;;;;;;5078351;28;24426;-52
2022/04/11 01:19:27;;;;;;;3.88;3.40;;;;;;;;;;5073495;28;24525;-53
2022/04/11 01:21:52;;;;;;;3.60;3.03;;;;;;;;;;5069283;28;24498;-52
2022/04/11 01:24:20;;;;;;;5.03;3.22;;;;;;;;;;5079555;28;24445;-52
2022/04/11 01:26:46;;;;;;;4.20;3.70;;;;;;;;;;5079010;28;24563;-52
2022/04/11 01:29:11;;;;;;;4.30;3.60;;;;;;;;;;5074252;28;25012;-53
2022/04/11 01:31:36;;;;;;;3.90;3.60;;;;;;;;;;5071830;28;24407;-53
2022/04/11 01:34:01;;;;;;;3.80;3.50;;;;;;;;;;5069425;28;24443;-52
2022/04/11 01:36:26;;;;;;;4.00;3.50;;;;;;;;;;5086997;28;25009;-53
2022/04/11 01:38:52;;;;;;;3.80;3.50;;;;;;;;;;5085702;28;24548;-53
2022/04/11 01:41:17;;;;;;;4.07;3.70;;;;;;;;;;5076352;28;24434;-53
2022/04/11 01:43:42;;;;;;;3.50;3.20;;;;;;;;;;5080209;28;25033;-52
2022/04/11 01:46:07;;;;;;;4.30;3.90;;;;;;;;;;5076146;28;24449;-53
2022/04/11 01:48:32;;;;;;;4.20;3.80;;;;;;;;;;5073685;28;24423;-53
2022/04/11 01:50:57;;;;;;;4.15;3.75;;;;;;;;;;5073066;28;24419;-52
2022/04/11 01:53:22;;;;;;;4.65;3.80;;;;;;;;;;5083385;28;25000;-53
2022/04/11 01:55:48;;;;;;;4.32;3.63;;;;;;;;;;5073382;28;24760;-54
2022/04/11 01:58:13;;;;;;;4.13;3.10;;;;;;;;;;5069776;28;24414;-53
2022/04/11 02:00:39;;;;;;;5.05;3.63;;;;;;;;;;5067901;28;24422;-53
2022/04/11 02:03:05;;;;;;;4.20;3.80;;;;;;;;;;5067397;28;24419;-53
2022/04/11 02:05:31;;;;;;;4.30;3.90;;;;;;;;;;5079826;28;24974;-54
2022/04/11 02:07:56;;;;;;;4.20;3.80;;;;;;;;;;5081091;28;24442;-53
2022/04/11 02:10:22;;;;;;;4.32;3.92;;;;;;;;;;5072115;28;24498;-53
2022/04/11 02:12:47;;;;;;;6.43;5.20;;;;;;;;;;5071510;28;24466;-52
2022/04/11 02:15:13;;;;;;;4.60;4.20;;;;;;;;;;5077610;28;24406;-52
2022/04/11 02:17:38;;;;;;;5.20;4.70;;;;;;;;;;5076081;28;25167;-52
2022/04/11 02:20:05;;;;;;;4.60;4.20;;;;;;;;;;5072331;28;24411;-52
2022/04/11 02:22:42;;;;;;;4.72;4.20;;;;;;;;;;5084611;28;24965;-53
2022/04/11 02:25:07;;;;;;;5.82;4.60;;;;;;;;;;5070935;28;24521;-52
2022/04/11 02:27:32;;;;;;;5.15;4.43;;;;;;;;;;5073677;28;24557;-52
2022/04/11 02:29:57;;;;;;;4.20;3.90;;;;;;;;;;5073688;28;24523;-52
2022/04/11 02:32:22;;;;;;;4.65;4.20;;;;;;;;;;5075963;28;24495;-52
2022/04/11 02:34:47;;;;;;;4.78;4.38;;;;;;;;;;5067779;28;24960;-52
2022/04/11 02:37:13;;;;;;;4.60;4.20;;;;;;;;;;5072110;28;24446;-52
2022/04/11 02:39:38;;;;;;;6.03;4.18;;;;;;;;;;5084066;28;24433;-52
2022/04/11 02:42:03;;;;;;;5.97;4.43;;;;;;;;;;5072036;28;24416;-53
2022/04/11 02:44:28;;;;;;;4.70;4.30;;;;;;;;;;5076383;28;24566;-52
2022/04/11 02:46:53;;;;;;;5.10;4.60;;;;;;;;;;5081238;28;24503;-52
2022/04/11 02:49:18;;;;;;;4.90;4.50;;;;;;;;;;5077581;28;24405;-53
2022/04/11 02:51:44;;;;;;;5.13;4.63;;;;;;;;;;5081518;28;24410;-52
2022/04/11 02:54:09;;;;;;;5.00;4.60;;;;;;;;;;5073588;28;24489;-52
2022/04/11 02:56:34;;;;;;;5.27;4.77;;;;;;;;;;5083176;28;24496;-50
2022/04/11 02:58:59;;;;;;;4.43;4.03;;;;;;;;;;5070858;28;24522;-52
2022/04/11 03:01:24;;;;;;;4.70;4.30;;;;;;;;;;5076019;28;24968;-53
2022/04/11 03:03:49;;;;;;;5.85;5.10;;;;;;;;;;5078954;28;25012;-53
2022/04/11 03:06:15;;;;;;;5.20;4.70;;;;;;;;;;5082922;28;24437;-53
2022/04/11 03:08:40;;;;;;;5.60;5.00;;;;;;;;;;5080338;28;24437;-52
2022/04/11 03:11:05;;;;;;;5.70;4.57;;;;;;;;;;5084015;28;24407;-52
2022/04/11 03:13:30;;;;;;;6.10;5.22;;;;;;;;;;5078103;28;24406;-52
2022/04/11 03:15:55;;;;;;;7.57;4.97;;;;;;;;;;5080481;28;24503;-52
2022/04/11 03:18:20;;;;;;;5.82;5.22;;;;;;;;;;5080534;28;24968;-53
2022/04/11 03:20:47;;;;;;;5.15;4.65;;;;;;;;;;5071334;28;24419;-52
2022/04/11 03:23:12;;;;;;;6.40;5.07;;;;;;;;;;5077720;28;24418;-52
2022/04/11 03:25:37;;;;;;;9.10;5.30;;;;;;;;;;5075252;28;24417;-53
2022/04/11 03:28:03;;;;;;;5.13;4.63;;;;;;;;;;5073138;28;24982;-53
2022/04/11 03:30:28;;;;;;;5.37;4.87;;;;;;;;;;5070143;28;24484;-53
2022/04/11 03:32:53;;;;;;;4.90;4.40;;;;;;;;;;5068066;28;24914;-53
2022/04/11 03:35:18;;;;;;;5.20;4.70;;;;;;;;;;5071225;28;24976;-52
2022/04/11 03:37:43;;;;;;;6.82;5.07;;;;;;;;;;5081186;28;24426;-53
2022/04/11 03:40:08;;;;;;;5.60;5.10;;;;;;;;;;5083368;28;24413;-53
2022/04/11 03:42:34;;;;;;;7.17;4.93;;;;;;;;;;5085992;28;24974;-53
2022/04/11 03:44:59;;;;;;;5.40;4.90;;;;;;;;;;5074597;28;24446;-52
2022/04/11 03:47:24;;;;;;;5.80;4.97;;;;;;;;;;5086373;28;24875;-53
2022/04/11 03:49:49;;;;;;;5.20;4.70;;;;;;;;;;5073034;28;24419;-54
2022/04/11 03:52:14;;;;;;;5.75;5.25;;;;;;;;;;5072136;28;24510;-52
2022/04/11 03:54:39;;;;;;;5.68;5.28;;;;;;;;;;5077687;28;25045;-52
2022/04/11 03:57:04;;;;;;;5.90;5.30;;;;;;;;;;5075512;28;24418;-52
2022/04/11 03:59:30;;;;;;;5.67;5.10;;;;;;;;;;5073964;28;24496;-53
2022/04/11 04:01:55;;;;;;;5.73;5.07;;;;;;;;;;5078857;28;24502;-52
2022/04/11 04:04:20;;;;;;;5.87;4.70;;;;;;;;;;5069977;28;24731;-53
2022/04/11 04:06:45;;;;;;;6.73;4.93;;;;;;;;;;5076130;28;24418;-53
2022/04/11 04:09:10;;;;;;;5.65;4.90;;;;;;;;;;5074748;28;24497;-52
2022/04/11 04:11:35;;;;;;;6.50;5.70;;;;;;;;;;5073405;28;24417;-52
2022/04/11 04:14:01;;;;;;;8.43;5.33;;;;;;;;;;5076512;28;24437;-52
2022/04/11 04:16:26;;;;;;;7.10;5.60;;;;;;;;;;5081025;28;24463;-52
2022/04/11 04:18:51;;;;;;;5.37;4.70;;;;;;;;;;5085792;28;24426;-51
2022/04/11 04:21:18;;;;;;;7.38;6.68;;;;;;;;;;5078518;28;24501;-53
2022/04/11 04:23:44;;;;;;;7.85;6.10;;;;;;;;;;5072450;28;24414;-51
2022/04/11 04:26:09;;;;;;;7.07;6.38;;;;;;;;;;5080757;28;24555;-52
2022/04/11 04:28:34;;;;;;;8.63;6.15;;;;;;;;;;5077289;28;24458;-52
2022/04/11 04:30:59;;;;;;;9.82;7.13;;;;;;;;;;5076078;28;24426;-53
2022/04/11 04:33:24;;;;;;;11.30;8.80;;;;;;;;;;5069342;28;24827;-53
2022/04/11 04:35:49;;;;;;;9.90;8.10;;;;;;;;;;5074263;28;24450;-52
2022/04/11 04:38:15;;;;;;;10.23;8.50;;;;;;;;;;5075722;28;24442;-52
2022/04/11 04:40:40;;;;;;;8.80;7.82;;;;;;;;;;5078480;28;24989;-52
2022/04/11 04:43:06;;;;;;;8.85;7.75;;;;;;;;;;5086968;28;25161;-53
2022/04/11 04:45:31;;;;;;;8.80;7.50;;;;;;;;;;5078220;28;24446;-52
2022/04/11 04:47:56;;;;;;;7.70;6.87;;;;;;;;;;5065687;28;24450;-53
2022/04/11 04:50:21;;;;;;;9.35;6.95;;;;;;;;;;5077001;28;24429;-53
2022/04/11 04:52:46;;;;;;;9.07;7.17;;;;;;;;;;5075939;28;24486;-54
2022/04/11 04:55:12;;;;;;;6.93;6.10;;;;;;;;;;5077654;28;25155;-53
2022/04/11 04:57:37;;;;;;;6.90;6.20;;;;;;;;;;5076830;28;24992;-53
2022/04/11 05:00:03;;;;;;;6.43;5.82;;;;;;;;;;5075866;28;24449;-52
2022/04/11 05:02:34;;;;;;;7.47;5.90;;;;;;;;;;5070163;28;24418;-52
2022/04/11 05:05:04;;;;;;;8.35;6.38;;;;;;;;;;5073060;28;24492;-52
2022/04/11 05:07:29;;;;;;;7.72;6.82;;;;;;;;;;5078556;28;25005;-51
2022/04/11 05:09:54;;;;;;;9.40;6.57;;;;;;;;;;5077424;28;24423;-53
2022/04/11 05:12:19;;;;;;;7.53;6.72;;;;;;;;;;5068642;28;24765;-52
2022/04/11 05:14:44;;;;;;;6.82;6.13;;;;;;;;;;5072300;28;24562;-53
2022/04/11 05:17:09;;;;;;;6.47;5.88;;;;;;;;;;5073689;28;24429;-53
2022/04/11 05:19:34;;;;;;;6.57;5.97;;;;;;;;;;5063601;28;25055;-53
2022/04/11 05:21:59;;;;;;;7.00;5.80;;;;;;;;;;5085316;28;24502;-51
2022/04/11 05:24:25;;;;;;;7.22;5.75;;;;;;;;;;5072093;28;24406;-52
2022/04/11 05:26:50;;;;;;;7.40;6.63;;;;;;;;;;5070067;28;24956;-53
2022/04/11 05:29:15;;;;;;;8.10;7.10;;;;;;;;;;5067933;28;24529;-52
2022/04/11 05:31:40;;;;;;;8.07;6.40;;;;;;;;;;5069371;28;24403;-52
2022/04/11 05:34:05;;;;;;;6.55;5.93;;;;;;;;;;5068002;28;24430;-52
2022/04/11 05:36:30;;;;;;;6.60;6.00;;;;;;;;;;5085095;28;24403;-51
2022/04/11 05:38:56;;;;;;;6.82;5.15;;;;;;;;;;5088315;28;24443;-51
2022/04/11 05:41:21;;;;;;;5.63;5.10;;;;;;;;;;5086031;28;24438;-52
2022/04/11 05:43:46;;;;;;;7.40;5.40;;;;;;;;;;5086252;28;24512;-52
2022/04/11 05:46:12;;;;;;;5.95;5.35;;;;;;;;;;5083578;28;24413;-55
2022/04/11 05:48:38;;;;;;;6.53;5.40;;;;;;;;;;5072423;28;24529;-52
2022/04/11 05:51:03;;;;;;;7.45;5.72;;;;;;;;;;5067731;28;24436;-53
2022/04/11 05:53:28;;;;;;;6.10;5.30;;;;;;;;;;5073893;28;24471;-52
2022/04/11 05:55:53;;;;;;;5.50;4.55;;;;;;;;;;5069270;28;24525;-52
2022/04/11 05:58:18;;;;;;;5.70;5.00;;;;;;;;;;5067364;28;24421;-53
2022/04/11 06:00:44;;;;;;;5.72;4.90;;;;;;;;;;5075934;28;24533;-52
2022/04/11 06:03:09;;;;;;;5.27;4.77;;;;;;;;;;5067854;28;24828;-52
2022/04/11 06:05:36;;;;;;;6.03;5.43;;;;;;;;;;5081221;28;24414;-55
2022/04/11 06:08:01;;;;;;;6.07;4.90;;;;;;;;;;5068770;28;24462;-54
2022/04/11 06:10:26;;;;;;;6.78;5.10;;;;;;;;;;5085504;28;24948;-53
2022/04/11 06:12:51;;;;;;;6.30;4.30;;;;;;;;;;5085959;28;25019;-53
2022/04/11 06:15:18;;;;;;;5.20;4.40;;;;;;;;;;5068089;28;24485;-53
2022/04/11 06:17:43;;;;;;;4.63;4.22;;;;;;;;;;5068022;28;24407;-54
2022/04/11 06:20:09;;;;;;;6.00;4.70;;;;;;;;;;5076223;28;24887;-54
2022/04/11 06:22:38;;;;;;;5.37;4.60;;;;;;;;;;5085735;28;24433;-53
2022/04/11 06:25:05;;;;;;;5.20;4.70;;;;;;;;;;5082213;28;24828;-54
2022/04/11 06:27:30;;;;;;;5.53;4.93;;;;;;;;;;5075578;28;24481;-54
2022/04/11 06:29:58;;;;;;;6.67;4.80;;;;;;;;;;5071812;28;24469;-54
2022/04/11 06:32:25;;;;;;;4.78;4.30;;;;;;;;;;5080783;28;24436;-53
2022/04/11 06:34:50;;;;;;;5.03;4.53;;;;;;;;;;5084986;28;24517;-54
2022/04/11 06:37:15;;;;;;;4.50;4.10;;;;;;;;;;5080678;28;25879;-53
2022/04/11 06:39:40;;;;;;;4.80;4.40;;;;;;;;;;5070716;28;24406;-53
2022/04/11 06:42:07;;;;;;;5.00;4.60;;;;;;;;;;5073086;28;24425;-53
2022/04/11 06:44:32;;;;;;;4.95;4.38;;;;;;;;;;5064726;28;24423;-53
2022/04/11 06:46:58;;;;;;;4.68;4.10;;;;;;;;;;5076223;28;24769;-54
2022/04/11 06:49:23;;;;;;;5.70;4.60;;;;;;;;;;5086359;28;24413;-53
2022/04/11 06:51:48;;;;;;;4.53;4.00;;;;;;;;;;5079839;28;24425;-54
2022/04/11 06:54:13;;;;;;;5.20;4.03;;;;;;;;;;5066406;28;24422;-53
2022/04/11 06:56:38;;;;;;;5.45;4.85;;;;;;;;;;5066499;28;24552;-54
2022/04/11 06:59:03;;;;;;;5.30;4.38;;;;;;;;;;5064513;28;24577;-54
2022/04/11 07:01:28;;;;;;;6.30;4.47;;;;;;;;;;5066524;28;24394;-54
2022/04/11 07:03:54;;;;;;;4.50;3.80;;;;;;;;;;5084741;28;25190;-54
2022/04/11 07:06:19;;;;;;;5.03;4.40;;;;;;;;;;5086702;28;24440;-54
2022/04/11 07:08:44;;;;;;;4.70;4.30;;;;;;;;;;5086547;28;24501;-54
2022/04/11 07:11:09;;;;;;;4.80;4.30;;;;;;;;;;5086558;28;24447;-54
2022/04/11 07:13:34;;;;;;;4.60;4.20;;;;;;;;;;5084586;28;24944;-54
2022/04/11 07:16:00;;;;;;;5.13;4.23;;;;;;;;;;5086476;28;24966;-53
2022/04/11 07:18:27;;;;;;;5.18;4.30;;;;;;;;;;5086776;28;24394;-53
2022/04/11 07:20:52;;;;;;;6.13;4.70;;;;;;;;;;5086610;28;24398;-53
2022/04/11 07:23:18;;;;;;;4.90;3.80;;;;;;;;;;5084884;28;24840;-53
2022/04/11 07:25:43;;;;;;;5.55;4.60;;;;;;;;;;5086457;28;24431;-53
2022/04/11 07:28:10;;;;;;;5.40;4.90;;;;;;;;;;5086007;28;24964;-52
2022/04/11 07:30:35;;;;;;;5.18;4.40;;;;;;;;;;5084026;28;24472;-53
2022/04/11 07:33:00;;;;;;;5.55;4.28;;;;;;;;;;5085889;28;24438;-52
2022/04/11 07:35:25;;;;;;;4.63;4.22;;;;;;;;;;5083859;28;24391;-53
2022/04/11 07:37:50;;;;;;;5.40;4.90;;;;;;;;;;5086614;28;24430;-53
2022/04/11 07:40:16;;;;;;;5.38;4.38;;;;;;;;;;5084014;28;24505;-53
2022/04/11 07:42:41;;;;;;;5.10;4.10;;;;;;;;;;5086223;28;24510;-54
2022/04/11 07:45:07;;;;;;;5.13;3.70;;;;;;;;;;5086174;28;24445;-54
2022/04/11 07:47:32;;;;;;;5.93;4.10;;;;;;;;;;5086072;28;24475;-53
2022/04/11 07:49:57;;;;;;;7.32;3.90;;;;;;;;;;5085959;28;24821;-53
2022/04/11 07:52:23;;;;;;;5.03;3.20;;;;;;;;;;5084438;28;25002;-53
2022/04/11 07:54:48;;;;;;;5.07;3.85;;;;;;;;;;5086241;28;24390;-53
2022/04/11 07:57:13;;;;;;;4.40;3.03;;;;;;;;;;5084293;28;24729;-54
2022/04/11 07:59:39;;;;;;;5.03;2.10;;;;;;;;;;5086731;28;24408;-53
2022/04/11 08:02:04;;;;;;;2.58;1.95;;;;;;;;;;5083642;28;25053;-54
2022/04/11 08:04:29;;;;;;;2.20;1.70;;;;;;;;;;5086145;28;24425;-53
2022/04/11 08:06:54;;;;;;;2.65;1.70;;;;;;;;;;5084263;28;24477;-52
2022/04/11 08:09:20;;;;;;;2.20;1.80;;;;;;;;;;5086352;28;24442;-54
2022/04/11 08:11:45;;;;;;;2.27;1.30;;;;;;;;;;5082532;28;25167;-54
2022/04/11 08:14:10;;;;;;;2.20;1.60;;;;;;;;;;5086485;28;24787;-54
2022/04/11 08:16:35;;;;;;;3.20;1.50;;;;;;;;;;5085760;28;24875;-54
2022/04/11 08:19:00;;;;;;;4.40;1.70;;;;;;;;;;5086083;28;24403;-54
2022/04/11 08:21:25;;;;;;;2.70;1.40;;;;;;;;;;5086389;28;24397;-53
2022/04/11 08:23:50;;;;;;;3.63;1.67;;;;;;;;;;5086320;28;24448;-54
2022/04/11 08:26:16;;;;;;;2.30;1.50;;;;;;;;;;5089814;28;24927;-54
2022/04/11 08:28:41;;;;;;;1.60;1.30;;;;;;;;;;5089814;28;24436;-54
2022/04/11 08:31:06;;;;;;;2.80;1.40;;;;;;;;;;5089653;28;24499;-54
2022/04/11 08:33:31;;;;;;;3.00;1.20;;;;;;;;;;5087631;28;24513;-54
2022/04/11 08:35:56;;;;;;;1.90;1.60;;;;;;;;;;5088990;28;24477;-53
2022/04/11 08:38:21;;;;;;;1.57;1.47;;;;;;;;;;5089780;28;24573;-54
2022/04/11 08:40:47;;;;;;;3.40;1.60;;;;;;;;;;5089486;28;24480;-54
2022/04/11 08:43:13;;;;;;;1.60;0.90;;;;;;;;;;5087806;28;24421;-53
2022/04/11 08:45:38;;;;;;;2.20;1.10;;;;;;;;;;5089178;28;24505;-53
2022/04/11 08:48:03;;;;;;;2.40;1.40;;;;;;;;;;5087649;28;24413;-54
2022/04/11 08:50:28;;;;;;;2.10;1.30;;;;;;;;;;5089845;28;24398;-53
2022/04/11 08:52:54;;;;;;;1.60;1.20;;;;;;;;;;5089521;28;24960;-53
2022/04/11 08:55:21;;;;;;;2.20;1.20;;;;;;;;;;5087560;28;24947;-54
2022/04/11 08:57:46;;;;;;;2.00;1.38;;;;;;;;;;5089095;28;24482;-54
2022/04/11 09:00:13;;;;;;;2.10;1.30;;;;;;;;;;5089076;28;25291;-53
2022/04/11 09:02:39;;;;;;;1.80;1.10;;;;;;;;;;5089259;28;24469;-53
2022/04/11 09:05:04;;;;;;;1.85;1.00;;;;;;;;;;5087078;28;24409;-53
2022/04/11 09:08:02;;;;;;;3.60;1.40;;;;;;;;;;5088969;28;24410;-54
2022/04/11 09:10:32;;;;;;;2.72;1.20;;;;;;;;;;5054809;28;24480;-53
2022/04/11 09:12:58;;;;;;;1.60;1.00;;;;;;;;;;5088603;28;25041;-53
2022/04/11 09:15:24;;;;;;;1.80;1.00;;;;;;;;;;5087008;28;24440;-53
2022/04/11 09:17:50;;;;;;;0.77;0.77;;;;;;;;;;5089083;28;24394;-53
2022/04/11 09:20:16;;;;;;;1.48;1.00;;;;;;;;;;5088117;28;24447;-53
2022/04/11 09:22:42;;;;;;;1.88;1.30;;;;;;;;;;5088802;28;24480;-52
2022/04/11 09:25:09;;;;;;;1.87;1.10;;;;;;;;;;5085407;28;24414;-53
2022/04/11 09:27:34;;;;;;;1.13;1.02;;;;;;;;;;5070777;28;24429;-54
2022/04/11 09:29:59;;;;;;;1.27;1.10;;;;;;;;;;5075764;28;24824;-54
2022/04/11 09:32:24;;;;;;;1.50;1.40;;;;;;;;;;5089063;28;24752;-53
2022/04/11 09:34:53;;;;;;;1.70;1.30;;;;;;;;;;5086877;28;24491;-54
2022/04/11 09:37:20;;;;;;;2.50;1.50;;;;;;;;;;5081795;28;24436;-53
2022/04/11 09:39:53;;;;;;;1.35;1.25;;;;;;;;;;5088552;28;24395;-53
2022/04/11 09:42:28;;;;;;;2.90;1.50;;;;;;;;;;5087986;28;24495;-53
2022/04/11 09:44:57;;;;;;;2.22;1.20;;;;;;;;;;5087953;28;24409;-54
2022/04/11 09:47:22;;;;;;;1.70;1.30;;;;;;;;;;5084363;28;24958;-54
2022/04/11 09:49:48;;;;;;;2.17;1.33;;;;;;;;;;5088266;28;25028;-54
2022/04/11 09:52:17;;;;;;;1.37;1.27;;;;;;;;;;5087862;28;24386;-54
2022/04/11 09:54:43;;;;;;;3.47;1.60;;;;;;;;;;5088037;28;24386;-54
2022/04/11 09:57:09;;;;;;;1.92;1.30;;;;;;;;;;5085584;28;24484;-53
2022/04/11 09:59:36;;;;;;;1.30;0.95;;;;;;;;;;5086278;28;24401;-54
2022/04/11 10:02:02;;;;;;;2.42;1.30;;;;;;;;;;5087786;28;24382;-54
2022/04/11 10:04:27;;;;;;;1.45;1.00;;;;;;;;;;5084288;28;25128;-54
2022/04/11 10:06:53;;;;;;;1.40;1.10;;;;;;;;;;5087819;28;24481;-54
2022/04/11 10:09:21;;;;;;;2.15;1.40;;;;;;;;;;5085739;28;24509;-53
2022/04/11 10:11:47;;;;;;;2.20;1.33;;;;;;;;;;5087584;28;24440;-53
2022/04/11 10:14:12;;;;;;;1.70;1.40;;;;;;;;;;5087843;28;24451;-54
2022/04/11 10:16:44;;;;;;;1.90;1.30;;;;;;;;;;5068032;28;24749;-54
2022/04/11 10:19:10;;;;;;;1.20;1.10;;;;;;;;;;5077006;28;24827;-53
2022/04/11 10:21:44;;;;;;;1.35;0.75;;;;;;;;;;5087548;28;24382;-53
2022/04/11 10:24:18;;;;;;;1.05;0.90;;;;;;;;;;5087142;28;24382;-54
2022/04/11 10:26:47;;;;;;;0.95;0.90;;;;;;;;;;5087452;28;24395;-54
2022/04/11 10:29:31;;;;;;;1.60;1.38;;;;;;;;;;5084748;28;24481;-53
2022/04/11 10:32:12;;;;;;;1.50;1.20;;;;;;;;;;5087626;28;24398;-53
2022/04/11 10:34:45;;;;;;;1.60;1.50;;;;;;;;;;5087481;28;24487;-53
2022/04/11 10:37:10;;;;;;;2.60;1.40;;;;;;;;;;5087229;28;24749;-53
2022/04/11 10:39:36;;;;;;;3.50;1.20;;;;;;;;;;5082783;28;24959;-54
2022/04/11 10:42:03;;;;;;;1.73;1.30;;;;;;;;;;5087094;28;24905;-53
2022/04/11 10:44:49;;;;;;;1.30;1.20;;;;;;;;;;5087479;28;24387;-53
2022/04/11 10:47:15;;;;;;;1.50;1.40;;;;;;;;;;5086218;28;24395;-53
2022/04/11 10:49:49;;;;;;;2.33;1.73;;;;;;;;;;5085270;28;24398;-53
2022/04/11 10:52:33;;;;;;;1.58;1.10;;;;;;;;;;5064456;28;25156;-53
2022/04/11 10:55:05;;;;;;;1.40;1.30;;;;;;;;;;5066846;28;24387;-55
2022/04/11 10:57:37;;;;;;;1.20;1.00;;;;;;;;;;5067201;28;24391;-53
2022/04/11 11:00:02;;;;;;;1.23;0.90;;;;;;;;;;5064639;28;24804;-53
2022/04/11 11:02:47;;;;;;;1.80;1.10;;;;;;;;;;5084729;28;24899;-53
2022/04/11 11:05:28;;;;;;;1.60;1.00;;;;;;;;;;5086455;28;24410;-54
2022/04/11 11:08:11;;;;;;;1.58;1.10;;;;;;;;;;5086652;28;25082;-53
2022/04/11 11:10:46;;;;;;;1.90;1.30;;;;;;;;;;5085948;28;24402;-54
2022/04/11 11:13:30;;;;;;;1.10;0.90;;;;;;;;;;5066167;28;24444;-53
2022/04/11 11:15:59;;;;;;;1.05;1.00;;;;;;;;;;5066341;28;24395;-54
2022/04/11 11:18:25;;;;;;;1.70;0.90;;;;;;;;;;5066718;28;24395;-53
2022/04/11 11:20:55;;;;;;;1.10;1.00;;;;;;;;;;5066578;28;24460;-53
2022/04/11 11:23:20;;;;;;;1.60;1.00;;;;;;;;;;5081915;28;24532;-54
2022/04/11 11:25:45;;;;;;;1.48;1.10;;;;;;;;;;5086680;28;24402;-54
2022/04/11 11:28:11;;;;;;;1.00;0.90;;;;;;;;;;5086405;28;24548;-53
2022/04/11 11:30:37;;;;;;;2.33;1.40;;;;;;;;;;5086019;28;24462;-53
2022/04/11 11:33:02;;;;;;;2.00;1.10;;;;;;;;;;5084369;28;24445;-54
2022/04/11 11:35:28;;;;;;;1.30;1.02;;;;;;;;;;5086564;28;25005;-53
2022/04/11 11:38:03;;;;;;;1.20;1.10;;;;;;;;;;5085687;28;24927;-54
2022/04/11 11:40:29;;;;;;;1.60;1.08;;;;;;;;;;5086515;28;24440;-53
2022/04/11 11:42:56;;;;;;;1.35;1.00;;;;;;;;;;5084325;28;24412;-53
2022/04/11 11:45:28;;;;;;;1.15;1.00;;;;;;;;;;5086527;28;24567;-53
2022/04/11 11:47:53;;;;;;;1.02;0.93;;;;;;;;;;5085979;28;24418;-53
2022/04/11 11:50:18;;;;;;;1.20;1.10;;;;;;;;;;5086022;28;24393;-53
2022/04/11 11:52:55;;;;;;;1.20;1.07;;;;;;;;;;5085856;28;24438;-53
2022/04/11 11:55:20;;;;;;;1.45;1.10;;;;;;;;;;5066030;28;24498;-52
2022/04/11 11:57:46;;;;;;;1.70;1.20;;;;;;;;;;5066628;28;24497;-52
2022/04/11 12:00:11;;;;;;;1.40;1.20;;;;;;;;;;5068646;28;24418;-51
2022/04/11 12:05:22;;;;;;;1.20;1.10;;;;;;;;;;5085254;28;24461;-53
2022/04/11 12:07:51;;;;;;;2.10;1.30;;;;;;;;;;5089783;28;24958;-53
2022/04/11 12:10:17;;;;;;;3.15;1.20;;;;;;;;;;5089749;28;24883;-53
2022/04/11 12:12:43;;;;;;;1.65;1.40;;;;;;;;;;5090121;28;24802;-53
2022/04/11 12:15:09;;;;;;;1.88;1.42;;;;;;;;;;5088152;28;24410;-53
2022/04/11 12:17:35;;;;;;;1.20;1.10;;;;;;;;;;5089713;28;24481;-53
2022/04/11 12:20:13;;;;;;;1.63;1.33;;;;;;;;;;5089571;28;24518;-53
2022/04/11 12:22:39;;;;;;;1.42;1.30;;;;;;;;;;5089807;28;24386;-53
2022/04/11 12:25:20;;;;;;;1.20;1.10;;;;;;;;;;5087785;28;24802;-53
2022/04/11 12:27:45;;;;;;;1.13;1.13;;;;;;;;;;5087451;28;24426;-53
2022/04/11 12:30:11;;;;;;;2.40;1.40;;;;;;;;;;5089122;28;24464;-53
2022/04/11 12:32:39;;;;;;;2.38;1.20;;;;;;;;;;5089335;28;25181;-53
2022/04/11 12:35:17;;;;;;;2.60;1.40;;;;;;;;;;5089802;28;24467;-53
2022/04/11 12:37:49;;;;;;;1.70;1.60;;;;;;;;;;5087688;28;25086;-53
2022/04/11 12:40:16;;;;;;;1.90;1.60;;;;;;;;;;5088956;28;24756;-53
2022/04/11 12:42:41;;;;;;;3.70;1.67;;;;;;;;;;5089825;28;24394;-54
2022/04/11 12:45:07;;;;;;;2.37;1.70;;;;;;;;;;5089257;28;24963;-54
2022/04/11 12:47:33;;;;;;;1.63;1.52;;;;;;;;;;5086889;28;25038;-53
2022/04/11 12:49:58;;;;;;;2.05;1.80;;;;;;;;;;5089858;28;24965;-53
2022/04/11 12:52:27;;;;;;;1.90;1.80;;;;;;;;;;5089372;28;24382;-52
2022/04/11 12:54:58;;;;;;;1.80;1.60;;;;;;;;;;5089031;28;24537;-53
2022/04/11 12:57:24;;;;;;;1.70;1.30;;;;;;;;;;5086223;28;24448;-52
2022/04/11 12:59:50;;;;;;;1.52;1.40;;;;;;;;;;5068837;28;24813;-53
2022/04/11 13:02:16;;;;;;;2.08;1.60;;;;;;;;;;5068782;28;24387;-53
2022/04/11 13:04:49;;;;;;;1.60;1.50;;;;;;;;;;5068929;28;24397;-52
2022/04/11 13:07:15;;;;;;;1.80;1.30;;;;;;;;;;5068392;28;24401;-53
2022/04/11 13:09:40;;;;;;;2.58;1.70;;;;;;;;;;5083222;28;24422;-54
2022/04/11 13:12:09;;;;;;;1.40;1.30;;;;;;;;;;5089306;28;24923;-52
2022/04/11 13:14:34;;;;;;;1.75;1.30;;;;;;;;;;5088764;28;24460;-53
2022/04/11 13:19:43;;;;;;;1.60;1.50;;;;;;;;;;5087010;28;24417;-53
2022/04/11 13:22:08;;;;;;;1.53;1.43;;;;;;;;;;5088501;28;24402;-54
2022/04/11 13:24:33;;;;;;;1.40;1.30;;;;;;;;;;5088457;28;24459;-54
2022/04/11 13:26:59;;;;;;;1.60;1.50;;;;;;;;;;5088623;28;24447;-54
2022/04/11 13:29:24;;;;;;;2.40;1.50;;;;;;;;;;5085443;28;24445;-54
2022/04/11 13:31:49;;;;;;;2.37;2.00;;;;;;;;;;5081634;28;24419;-54
2022/04/11 13:34:14;;;;;;;1.80;1.70;;;;;;;;;;5088411;28;24447;-53
2022/04/11 13:36:40;;;;;;;1.90;1.80;;;;;;;;;;5088311;28;24556;-54
2022/04/11 13:39:05;;;;;;;1.97;1.77;;;;;;;;;;5088181;28;24394;-53
2022/04/11 13:41:32;;;;;;;2.20;1.80;;;;;;;;;;5085777;28;24985;-53
2022/04/11 13:43:57;;;;;;;2.10;1.70;;;;;;;;;;5079986;28;25018;-54
2022/04/11 13:46:23;;;;;;;2.47;1.58;;;;;;;;;;5067778;28;24495;-54
2022/04/11 13:48:48;;;;;;;1.70;1.50;;;;;;;;;;5068201;28;24741;-54
2022/04/11 13:51:13;;;;;;;1.70;1.60;;;;;;;;;;5065762;28;24445;-53
2022/04/11 13:53:38;;;;;;;3.47;1.60;;;;;;;;;;5066678;28;24752;-54
2022/04/11 13:56:05;;;;;;;2.50;1.90;;;;;;;;;;5068873;28;24572;-54
2022/04/11 13:58:31;;;;;;;1.90;1.60;;;;;;;;;;5067045;28;24485;-54
2022/04/11 14:00:56;;;;;;;3.43;2.03;;;;;;;;;;5066605;28;24394;-53
2022/04/11 14:03:21;;;;;;;2.05;1.70;;;;;;;;;;5067619;28;24387;-53
2022/04/11 14:05:46;;;;;;;1.90;1.70;;;;;;;;;;5068418;28;24472;-54
2022/04/11 14:08:12;;;;;;;2.03;1.77;;;;;;;;;;5069144;28;24685;-53
2022/04/11 14:10:37;;;;;;;2.20;1.80;;;;;;;;;;5086764;28;24399;-53
2022/04/11 14:13:03;;;;;;;2.23;1.70;;;;;;;;;;5087431;28;24749;-53
2022/04/11 14:15:28;;;;;;;2.10;1.90;;;;;;;;;;5087348;28;24941;-53
2022/04/11 14:17:53;;;;;;;1.80;1.70;;;;;;;;;;5085603;28;24826;-53
2022/04/11 14:20:18;;;;;;;1.90;1.80;;;;;;;;;;5067227;28;24422;-53
2022/04/11 14:22:44;;;;;;;2.50;2.30;;;;;;;;;;5066977;28;24406;-53
2022/04/11 14:25:09;;;;;;;2.40;2.00;;;;;;;;;;5079489;28;24452;-53
2022/04/11 14:27:34;;;;;;;2.80;1.50;;;;;;;;;;5085836;28;25404;-52
2022/04/11 14:29:59;;;;;;;2.80;1.95;;;;;;;;;;5087245;28;24493;-53
2022/04/11 14:32:25;;;;;;;1.70;1.60;;;;;;;;;;5087277;28;24395;-52
2022/04/11 14:34:51;;;;;;;1.60;1.50;;;;;;;;;;5084643;28;24902;-53
2022/04/11 14:37:16;;;;;;;2.97;1.88;;;;;;;;;;5087186;28;24599;-54
2022/04/11 14:39:41;;;;;;;3.28;1.80;;;;;;;;;;5081884;28;24777;-53
2022/04/11 14:42:06;;;;;;;2.30;1.70;;;;;;;;;;5066894;28;24393;-53
2022/04/11 14:44:31;;;;;;;1.60;1.50;;;;;;;;;;5070002;28;24425;-54